Federal Miramichi — V2BN9 — position and weather

sailwx.info

Track history (hours):
 
Tides and Currents Weather Stations Pressure Air Temp Water Temp Dewpoint Dewpoint Depression Visibility Wind Speed Wind Dir Waves Ship Positions

Federal Miramichi

Last reported at 2017-Dec-26 01:35 UTC. Time now 2018-Jan-21 08:16 UTC.
Position N 01°15' E 104°05'.
Warning: this ship's position is 26 days out of date.

Length 185 m; beam 23.5 m; draft 9.6 m.

Type: Ship. MMSI: 205253488.

Date/timePositionNaut miles runAvg speedWind from/ knotsBaromVisibWave heightAir tempDewpointWater temp
2017-Dec-26 01:35N 01°15' E 104°05'212.2
2017-Dec-26 01:27N 01°14' E 104°03'511.6
2017-Dec-26 01:00N 01°14' E 103°58'4 7.0
2017-Dec-26 00:30N 01°14' E 103°54'2 3.3
2017-Dec-25 23:59N 01°16' E 103°53'0 0.0
2017-Dec-25 23:27N 01°15' E 103°53'0 0.0
2017-Dec-25 22:55N 01°15' E 103°53'0 0.0
2017-Dec-25 22:27N 01°15' E 103°53'0 0.0
2017-Dec-25 21:54N 01°15' E 103°53'0 0.0
2017-Dec-25 21:29N 01°15' E 103°53'0 0.0
2017-Dec-25 20:39N 01°15' E 103°53'0 0.0
2017-Dec-25 20:25N 01°15' E 103°53'0 0.0
2017-Dec-25 19:58N 01°15' E 103°53'0 0.0
2017-Dec-25 19:07N 01°15' E 103°53'0 0.0
2017-Dec-25 19:00N 01°15' E 103°53'0 0.0
2017-Dec-25 18:03N 01°15' E 103°53'0 0.0
2017-Dec-25 17:59N 01°15' E 103°53'0 0.0
2017-Dec-25 17:29N 01°15' E 103°53'0 0.0
2017-Dec-25 16:50N 01°15' E 103°53'0 0.0
2017-Dec-25 16:06N 01°15' E 103°53'0 0.0
2017-Dec-25 15:58N 01°15' E 103°53'0 0.1
2017-Dec-25 15:28N 01°15' E 103°53'0 0.5
2017-Dec-25 14:59N 01°15' E 103°53'2 3.8
2017-Dec-25 14:30N 01°13' E 103°53'3 5.5
2017-Dec-25 14:00N 01°11' E 103°52'3 6.4
2017-Dec-25 13:29N 01°10' E 103°49'3 7.3
2017-Dec-25 13:01N 01°08' E 103°46'4 7.1
2017-Dec-25 12:29N 01°05' E 103°43'4 8.4
2017-Dec-25 12:00N 01°03' E 103°40'611.0
2017-Dec-25 11:26N 01°06' E 103°34'  
Track history (hours):
 
Tides and Currents Weather Stations Pressure Air Temp Water Temp Dewpoint Dewpoint Depression Visibility Wind Speed Wind Dir Waves Ship Positions

Federal Miramichi

Last reported at 2017-Dec-26 01:35 UTC. Time now 2018-Jan-21 08:16 UTC.
Position N 01°15' E 104°05'.
Warning: this ship's position is 26 days out of date.

Length 185 m; beam 23.5 m; draft 9.6 m.

Type: Ship. MMSI: 205253488.

Date/timePositionNaut miles runAvg speedWind from/ knotsBaromVisibWave heightAir tempDewpointWater temp
2017-Dec-26 01:35N 01°15' E 104°05'212.2
2017-Dec-26 01:27N 01°14' E 104°03'511.6
2017-Dec-26 01:00N 01°14' E 103°58'4 7.0
2017-Dec-26 00:30N 01°14' E 103°54'2 3.3
2017-Dec-25 23:59N 01°16' E 103°53'0 0.0
2017-Dec-25 23:27N 01°15' E 103°53'0 0.0
2017-Dec-25 22:55N 01°15' E 103°53'0 0.0
2017-Dec-25 22:27N 01°15' E 103°53'0 0.0
2017-Dec-25 21:54N 01°15' E 103°53'0 0.0
2017-Dec-25 21:29N 01°15' E 103°53'0 0.0
2017-Dec-25 20:39N 01°15' E 103°53'0 0.0
2017-Dec-25 20:25N 01°15' E 103°53'0 0.0
2017-Dec-25 19:58N 01°15' E 103°53'0 0.0
2017-Dec-25 19:07N 01°15' E 103°53'0 0.0
2017-Dec-25 19:00N 01°15' E 103°53'0 0.0
2017-Dec-25 18:03N 01°15' E 103°53'0 0.0
2017-Dec-25 17:59N 01°15' E 103°53'0 0.0
2017-Dec-25 17:29N 01°15' E 103°53'0 0.0
2017-Dec-25 16:50N 01°15' E 103°53'0 0.0
2017-Dec-25 16:06N 01°15' E 103°53'0 0.0
2017-Dec-25 15:58N 01°15' E 103°53'0 0.1
2017-Dec-25 15:28N 01°15' E 103°53'0 0.5
2017-Dec-25 14:59N 01°15' E 103°53'2 3.8
2017-Dec-25 14:30N 01°13' E 103°53'3 5.5
2017-Dec-25 14:00N 01°11' E 103°52'3 6.4
2017-Dec-25 13:29N 01°10' E 103°49'3 7.3
2017-Dec-25 13:01N 01°08' E 103°46'4 7.1
2017-Dec-25 12:29N 01°05' E 103°43'4 8.4
2017-Dec-25 12:00N 01°03' E 103°40'611.0
2017-Dec-25 11:26N 01°06' E 103°34'  

Dump ship's entire track history